Banner



Журнал Авиация и Спорт

 

 

Страница пилота

Данные METAR получены с http://aviationweather.gov/adds/metars/
Текст METAR: UUDD 222130Z 34005MPS CAVOK 02/M05 Q1008 R88/010095 NOSIG
Условия на: UUDD (MOSCOW/DOMODEDOV, RU) observed 2130 UTC 22 April 2018
Температура: 2.0°C (36°F)
Точка росы: -5.0°C (23°F) [RH = 60%]
Давление (альтиметр): 29.76 inches Hg (1008.0 mb)
Ветер: from the NNW (340 degrees) at 12 MPH (10 knots; 5.2 m/s)
Видимость: 6 or more miles (10+ km)
Высота облачности: ceiling and visibility are OK
Облачность: unknown
Погода: no significant weather observed at this time
Прогноз на: UUDD (MOSCOW/DOMODEDOV, RU)
Текст: TAF UUDD 221955Z 2221/2403 34007MPS 9999 SCT015 TX07/2312Z TNM02/2302Z
Период прогноза: 2100 UTC 22 April 2018 to 1700 UTC 23 April 2018
Тип прогноза: FROM: standard forecast or significant change
Ветер: from the NNW (340 degrees) at 16 MPH (14 knots; 7.3 m/s)
Видимость: 6 or more miles (10+ km)
Облачность: scattered clouds at 1500 feet AGL
Погода: no significant weather forecast for this period
Текст: TEMPO 2305/2314 34007G12MPS
Период прогноза: 0500 to 1400 UTC 23 April 2018
Тип прогноза: TEMPORARY: The following changes expected for less than half the time period
Ветер: from the NNW (340 degrees) at 16 MPH (14 knots; 7.3 m/s)
gusting to 26 MPH (23 knots; 12.0 m/s)
Погода: no significant weather forecast for this period
Текст: BECMG 2317/2319 30002MPS
Период прогноза: 1700 UTC 23 April 2018 to 0300 UTC 24 April 2018
Тип прогноза: BECOMING: Conditions expected to become as follows by 1900 UTC 23 April 2018
Ветер: from the WNW (300 degrees) at 5 MPH (4 knots; 2.1 m/s)
Видимость: 6 or more miles (10+ km)
Облачность: scattered clouds at 1500 feet AGL
Погода: no significant weather forecast for this period
Текст METAR: UUWW 222130Z 32003MPS CAVOK 00/M05 Q1009 R06/290050 NOSIG
Условия на: UUWW (MOSCOW/VNUKOVO , RU) observed 2130 UTC 22 April 2018
Температура: 0.0°C (32°F)
Точка росы: -5.0°C (23°F) [RH = 69%]
Давление (альтиметр): 29.79 inches Hg (1009.0 mb)
Ветер: from the NW (320 degrees) at 7 MPH (6 knots; 3.1 m/s)
Видимость: 6 or more miles (10+ km)
Высота облачности: ceiling and visibility are OK
Облачность: unknown
Погода: no significant weather observed at this time
Прогноз на: UUWW (MOSCOW/VNUKOVO , RU)
Текст: TAF UUWW 221958Z 2221/2321 34006MPS 9999 BKN015 TX06/2312Z TNM03/2303Z
Период прогноза: 2100 UTC 22 April 2018 to 2100 UTC 23 April 2018
Тип прогноза: FROM: standard forecast or significant change
Ветер: from the NNW (340 degrees) at 14 MPH (12 knots; 6.2 m/s)
Видимость: 6 or more miles (10+ km)
Высота облачности: 1500 feet AGL
Облачность: broken clouds at 1500 feet AGL
Погода: no significant weather forecast for this period
Текст METAR: UUEE 222130Z 30004MPS CAVOK 00/M05 Q1008 R24L/150057 NOSIG
Условия на: UUEE (MOSCOW/SHEREMET', RU) observed 2130 UTC 22 April 2018
Температура: 0.0°C (32°F)
Точка росы: -5.0°C (23°F) [RH = 69%]
Давление (альтиметр): 29.76 inches Hg (1008.0 mb)
Ветер: from the WNW (300 degrees) at 9 MPH (8 knots; 4.2 m/s)
Видимость: 6 or more miles (10+ km)
Высота облачности: ceiling and visibility are OK
Облачность: unknown
Погода: no significant weather observed at this time
Прогноз на: UUEE (MOSCOW/SHEREMET', RU)
Текст: TAF UUEE 221949Z 2221/2321 34006MPS 9999 BKN020 TX06/2313Z TNM03/2303Z
Период прогноза: 2100 UTC 22 April 2018 to 2100 UTC 23 April 2018
Тип прогноза: FROM: standard forecast or significant change
Ветер: from the NNW (340 degrees) at 14 MPH (12 knots; 6.2 m/s)
Видимость: 6 or more miles (10+ km)
Высота облачности: 2000 feet AGL
Облачность: broken clouds at 2000 feet AGL
Погода: no significant weather forecast for this period

вернуться на главную